sensor_id;sensor_type;location;lat;lon;timestamp;pressure;altitude;pressure_sealevel;temperature;humidity
64025;BME280;50266;57.446;26.936;2023-06-24T00:00:03;99226.2;;;13.57;100.0
64025;BME280;50266;57.446;26.936;2023-06-24T00:01:03;99217.47;;;13.55;100.0
64025;BME280;50266;57.446;26.936;2023-06-24T00:02:03;99224.33;;;13.53;100.0
64025;BME280;50266;57.446;26.936;2023-06-24T00:03:03;99223.81;;;13.53;100.0
64025;BME280;50266;57.446;26.936;2023-06-24T00:04:03;99224.94;;;13.51;100.0
64025;BME280;50266;57.446;26.936;2023-06-24T00:05:03;99224.38;;;13.52;100.0
64025;BME280;50266;57.446;26.936;2023-06-24T00:06:03;99220.64;;;13.55;100.0
64025;BME280;50266;57.446;26.936;2023-06-24T00:07:03;99224.94;;;13.51;100.0
64025;BME280;50266;57.446;26.936;2023-06-24T00:08:03;99224.25;;;13.49;100.0
64025;BME280;50266;57.446;26.936;2023-06-24T00:09:03;99223.53;;;13.47;100.0
64025;BME280;50266;57.446;26.936;2023-06-24T00:10:03;99223.05;;;13.52;100.0
64025;BME280;50266;57.446;26.936;2023-06-24T00:11:03;99222.93;;;13.5;100.0
64025;BME280;50266;57.446;26.936;2023-06-24T00:12:03;99222.19;;;13.47;100.0
64025;BME280;50266;57.446;26.936;2023-06-24T00:13:03;99222.3;;;13.45;100.0
64025;BME280;50266;57.446;26.936;2023-06-24T00:14:03;99225.22;;;13.39;100.0
64025;BME280;50266;57.446;26.936;2023-06-24T00:15:03;99223.53;;;13.38;100.0
64025;BME280;50266;57.446;26.936;2023-06-24T00:16:03;99224.63;;;13.42;100.0
64025;BME280;50266;57.446;26.936;2023-06-24T00:17:03;99224.45;;;13.41;100.0
64025;BME280;50266;57.446;26.936;2023-06-24T00:18:03;99224.17;;;13.43;100.0
64025;BME280;50266;57.446;26.936;2023-06-24T00:19:03;99226.5;;;13.43;100.0
64025;BME280;50266;57.446;26.936;2023-06-24T00:20:03;99227.0;;;13.49;100.0
64025;BME280;50266;57.446;26.936;2023-06-24T00:21:03;99222.77;;;13.47;100.0
64025;BME280;50266;57.446;26.936;2023-06-24T00:22:03;99224.07;;;13.43;100.0
64025;BME280;50266;57.446;26.936;2023-06-24T00:23:03;99227.06;;;13.39;100.0
64025;BME280;50266;57.446;26.936;2023-06-24T00:24:03;99213.05;;;13.42;100.0
64025;BME280;50266;57.446;26.936;2023-06-24T00:25:03;99209.66;;;13.4;100.0
64025;BME280;50266;57.446;26.936;2023-06-24T00:26:03;99205.4;;;13.37;100.0
64025;BME280;50266;57.446;26.936;2023-06-24T00:27:03;99208.06;;;13.37;100.0
64025;BME280;50266;57.446;26.936;2023-06-24T00:28:03;99208.0;;;13.38;100.0
64025;BME280;50266;57.446;26.936;2023-06-24T00:29:03;99209.48;;;13.37;100.0
64025;BME280;50266;57.446;26.936;2023-06-24T00:30:03;99203.03;;;13.29;100.0
64025;BME280;50266;57.446;26.936;2023-06-24T00:31:03;99207.38;;;13.33;100.0
64025;BME280;50266;57.446;26.936;2023-06-24T00:32:03;99207.32;;;13.37;100.0
64025;BME280;50266;57.446;26.936;2023-06-24T00:33:03;99206.59;;;13.35;100.0
64025;BME280;50266;57.446;26.936;2023-06-24T00:34:03;99200.6;;;13.32;100.0
64025;BME280;50266;57.446;26.936;2023-06-24T00:35:03;99200.83;;;13.27;100.0
64025;BME280;50266;57.446;26.936;2023-06-24T00:36:03;99201.86;;;13.28;100.0
64025;BME280;50266;57.446;26.936;2023-06-24T00:37:03;99202.02;;;13.33;100.0
64025;BME280;50266;57.446;26.936;2023-06-24T00:38:03;99201.73;;;13.31;100.0
64025;BME280;50266;57.446;26.936;2023-06-24T00:39:04;99207.09;;;13.28;100.0
64025;BME280;50266;57.446;26.936;2023-06-24T00:40:04;99201.5;;;13.24;100.0
64025;BME280;50266;57.446;26.936;2023-06-24T00:41:03;99204.69;;;13.22;100.0
64025;BME280;50266;57.446;26.936;2023-06-24T00:42:04;99201.52;;;13.26;100.0
64025;BME280;50266;57.446;26.936;2023-06-24T00:43:03;99202.7;;;13.2;100.0
64025;BME280;50266;57.446;26.936;2023-06-24T00:44:03;99198.5;;;13.22;100.0
64025;BME280;50266;57.446;26.936;2023-06-24T00:45:09;99201.86;;;13.33;100.0
64025;BME280;50266;57.446;26.936;2023-06-24T00:46:06;99200.2;;;13.29;100.0
64025;BME280;50266;57.446;26.936;2023-06-24T00:47:06;99205.2;;;13.26;100.0
64025;BME280;50266;57.446;26.936;2023-06-24T00:48:06;99203.3;;;13.31;100.0
64025;BME280;50266;57.446;26.936;2023-06-24T00:49:06;99200.12;;;13.26;100.0
64025;BME280;50266;57.446;26.936;2023-06-24T00:50:06;99200.52;;;13.25;100.0
64025;BME280;50266;57.446;26.936;2023-06-24T00:51:06;99201.58;;;13.28;100.0
64025;BME280;50266;57.446;26.936;2023-06-24T00:52:06;99203.91;;;13.24;100.0
64025;BME280;50266;57.446;26.936;2023-06-24T00:53:06;99203.69;;;13.19;100.0
64025;BME280;50266;57.446;26.936;2023-06-24T00:54:06;99200.84;;;13.28;100.0
64025;BME280;50266;57.446;26.936;2023-06-24T00:55:06;99204.52;;;13.28;100.0
64025;BME280;50266;57.446;26.936;2023-06-24T00:56:06;99208.47;;;13.39;100.0
64025;BME280;50266;57.446;26.936;2023-06-24T00:57:06;99207.11;;;13.29;100.0
64025;BME280;50266;57.446;26.936;2023-06-24T00:58:06;99210.94;;;13.28;100.0
64025;BME280;50266;57.446;26.936;2023-06-24T00:59:06;99209.22;;;13.29;100.0
64025;BME280;50266;57.446;26.936;2023-06-24T01:00:06;99212.19;;;13.28;100.0
64025;BME280;50266;57.446;26.936;2023-06-24T01:01:06;99208.77;;;13.25;100.0
64025;BME280;50266;57.446;26.936;2023-06-24T01:02:06;99216.03;;;13.26;100.0
64025;BME280;50266;57.446;26.936;2023-06-24T01:03:06;99219.24;;;13.21;100.0
64025;BME280;50266;57.446;26.936;2023-06-24T01:04:06;99214.92;;;13.14;100.0
64025;BME280;50266;57.446;26.936;2023-06-24T01:05:06;99213.0;;;13.18;100.0
64025;BME280;50266;57.446;26.936;2023-06-24T01:06:07;99216.91;;;13.14;100.0
64025;BME280;50266;57.446;26.936;2023-06-24T01:07:06;99214.81;;;13.17;100.0
64025;BME280;50266;57.446;26.936;2023-06-24T01:08:06;99218.05;;;13.2;100.0
64025;BME280;50266;57.446;26.936;2023-06-24T01:09:06;99218.98;;;13.21;100.0
64025;BME280;50266;57.446;26.936;2023-06-24T01:10:06;99220.76;;;13.21;100.0
64025;BME280;50266;57.446;26.936;2023-06-24T01:11:06;99223.79;;;13.22;100.0
64025;BME280;50266;57.446;26.936;2023-06-24T01:12:06;99220.48;;;13.33;100.0
64025;BME280;50266;57.446;26.936;2023-06-24T01:13:06;99223.84;;;13.21;100.0
64025;BME280;50266;57.446;26.936;2023-06-24T01:14:06;99224.42;;;13.27;100.0
64025;BME280;50266;57.446;26.936;2023-06-24T01:15:06;99221.98;;;13.37;100.0
64025;BME280;50266;57.446;26.936;2023-06-24T01:16:06;99224.05;;;13.48;100.0
64025;BME280;50266;57.446;26.936;2023-06-24T01:17:13;99228.34;;;13.37;100.0
64025;BME280;50266;57.446;26.936;2023-06-24T01:18:07;99226.69;;;13.32;100.0
64025;BME280;50266;57.446;26.936;2023-06-24T01:19:15;99228.85;;;13.24;100.0
64025;BME280;50266;57.446;26.936;2023-06-24T01:21:22;99231.01;;;13.53;100.0
64025;BME280;50266;57.446;26.936;2023-06-24T01:23:20;99227.44;;;13.66;100.0
64025;BME280;50266;57.446;26.936;2023-06-24T01:30:41;99234.44;;;13.76;100.0
64025;BME280;50266;57.446;26.936;2023-06-24T01:32:44;99234.41;;;13.72;100.0
64025;BME280;50266;57.446;26.936;2023-06-24T01:33:42;99235.08;;;13.71;100.0
64025;BME280;50266;57.446;26.936;2023-06-24T01:35:43;99244.34;;;13.65;100.0
64025;BME280;50266;57.446;26.936;2023-06-24T01:36:45;99243.19;;;13.65;100.0
64025;BME280;50266;57.446;26.936;2023-06-24T01:37:44;99244.7;;;13.63;100.0
64025;BME280;50266;57.446;26.936;2023-06-24T01:38:46;99245.28;;;13.57;100.0
64025;BME280;50266;57.446;26.936;2023-06-24T01:40:45;99249.65;;;13.61;100.0
64025;BME280;50266;57.446;26.936;2023-06-24T01:41:47;99251.02;;;13.59;100.0
64025;BME280;50266;57.446;26.936;2023-06-24T01:42:47;99249.45;;;13.57;100.0
64025;BME280;50266;57.446;26.936;2023-06-24T01:43:47;99251.87;;;13.53;100.0
64025;BME280;50266;57.446;26.936;2023-06-24T01:44:47;99246.06;;;13.55;100.0
64025;BME280;50266;57.446;26.936;2023-06-24T01:45:48;99247.73;;;13.57;100.0
64025;BME280;50266;57.446;26.936;2023-06-24T01:46:48;99244.75;;;13.55;100.0
64025;BME280;50266;57.446;26.936;2023-06-24T01:47:47;99246.61;;;13.56;100.0
64025;BME280;50266;57.446;26.936;2023-06-24T01:48:47;99246.91;;;13.61;100.0
64025;BME280;50266;57.446;26.936;2023-06-24T01:49:47;99248.22;;;13.6;100.0
64025;BME280;50266;57.446;26.936;2023-06-24T01:50:58;99246.61;;;13.56;100.0
64025;BME280;50266;57.446;26.936;2023-06-24T01:51:50;99247.32;;;13.5;100.0
64025;BME280;50266;57.446;26.936;2023-06-24T01:52:50;99250.65;;;13.54;100.0
64025;BME280;50266;57.446;26.936;2023-06-24T01:53:51;99249.0;;;13.55;100.0
64025;BME280;50266;57.446;26.936;2023-06-24T01:54:50;99248.58;;;13.52;100.0
64025;BME280;50266;57.446;26.936;2023-06-24T01:55:50;99250.18;;;13.53;100.0
64025;BME280;50266;57.446;26.936;2023-06-24T01:56:50;99251.18;;;13.48;100.0
64025;BME280;50266;57.446;26.936;2023-06-24T01:57:50;99248.78;;;13.49;100.0
64025;BME280;50266;57.446;26.936;2023-06-24T01:58:50;99245.1;;;13.53;100.0
64025;BME280;50266;57.446;26.936;2023-06-24T01:59:50;99245.53;;;13.49;100.0
64025;BME280;50266;57.446;26.936;2023-06-24T02:00:50;99246.16;;;13.51;100.0
64025;BME280;50266;57.446;26.936;2023-06-24T02:01:50;99247.01;;;13.48;100.0
64025;BME280;50266;57.446;26.936;2023-06-24T02:02:50;99247.98;;;13.47;100.0
64025;BME280;50266;57.446;26.936;2023-06-24T02:03:50;99241.41;;;13.45;100.0
64025;BME280;50266;57.446;26.936;2023-06-24T02:04:50;99247.56;;;13.41;100.0
64025;BME280;50266;57.446;26.936;2023-06-24T02:05:50;99247.72;;;13.44;100.0
64025;BME280;50266;57.446;26.936;2023-06-24T02:06:50;99247.69;;;13.43;100.0
64025;BME280;50266;57.446;26.936;2023-06-24T02:07:50;99253.2;;;13.43;100.0
64025;BME280;50266;57.446;26.936;2023-06-24T02:08:50;99255.18;;;13.42;100.0
64025;BME280;50266;57.446;26.936;2023-06-24T02:09:50;99256.05;;;13.38;100.0
64025;BME280;50266;57.446;26.936;2023-06-24T02:10:50;99255.42;;;13.42;100.0
64025;BME280;50266;57.446;26.936;2023-06-24T02:11:50;99255.05;;;13.44;100.0
64025;BME280;50266;57.446;26.936;2023-06-24T02:12:50;99257.48;;;13.41;100.0
64025;BME280;50266;57.446;26.936;2023-06-24T02:13:50;99254.56;;;13.41;100.0
64025;BME280;50266;57.446;26.936;2023-06-24T02:14:50;99258.25;;;13.39;100.0
64025;BME280;50266;57.446;26.936;2023-06-24T02:15:50;99255.36;;;13.37;100.0
64025;BME280;50266;57.446;26.936;2023-06-24T02:16:50;99257.16;;;13.38;100.0
64025;BME280;50266;57.446;26.936;2023-06-24T02:17:50;99260.34;;;13.42;100.0
64025;BME280;50266;57.446;26.936;2023-06-24T02:18:50;99256.71;;;13.43;100.0
64025;BME280;50266;57.446;26.936;2023-06-24T02:19:51;99256.95;;;13.43;100.0
64025;BME280;50266;57.446;26.936;2023-06-24T02:20:51;99260.38;;;13.46;100.0
64025;BME280;50266;57.446;26.936;2023-06-24T02:21:51;99260.88;;;13.46;100.0
64025;BME280;50266;57.446;26.936;2023-06-24T02:22:50;99259.74;;;13.44;100.0
64025;BME280;50266;57.446;26.936;2023-06-24T02:23:51;99258.41;;;13.44;100.0
64025;BME280;50266;57.446;26.936;2023-06-24T02:24:51;99256.17;;;13.45;100.0
64025;BME280;50266;57.446;26.936;2023-06-24T02:25:51;99259.41;;;13.5;100.0
64025;BME280;50266;57.446;26.936;2023-06-24T02:26:51;99257.19;;;13.53;100.0
64025;BME280;50266;57.446;26.936;2023-06-24T02:27:51;99262.17;;;13.51;100.0
64025;BME280;50266;57.446;26.936;2023-06-24T02:28:51;99258.04;;;13.53;100.0
64025;BME280;50266;57.446;26.936;2023-06-24T02:29:51;99254.43;;;13.52;100.0
64025;BME280;50266;57.446;26.936;2023-06-24T02:30:51;99253.53;;;13.49;100.0
64025;BME280;50266;57.446;26.936;2023-06-24T02:31:51;99257.91;;;13.5;100.0
64025;BME280;50266;57.446;26.936;2023-06-24T02:32:51;99255.61;;;13.53;100.0
64025;BME280;50266;57.446;26.936;2023-06-24T02:33:51;99260.41;;;13.51;100.0
64025;BME280;50266;57.446;26.936;2023-06-24T02:34:51;99259.91;;;13.5;100.0
64025;BME280;50266;57.446;26.936;2023-06-24T02:35:51;99258.09;;;13.52;100.0
64025;BME280;50266;57.446;26.936;2023-06-24T02:36:51;99256.77;;;13.52;100.0
64025;BME280;50266;57.446;26.936;2023-06-24T02:37:51;99259.56;;;13.57;100.0
64025;BME280;50266;57.446;26.936;2023-06-24T02:38:51;99255.27;;;13.61;100.0
64025;BME280;50266;57.446;26.936;2023-06-24T02:39:51;99262.99;;;13.63;100.0
64025;BME280;50266;57.446;26.936;2023-06-24T02:40:51;99268.41;;;13.66;100.0
64025;BME280;50266;57.446;26.936;2023-06-24T02:41:51;99266.24;;;13.63;100.0
64025;BME280;50266;57.446;26.936;2023-06-24T02:42:51;99265.56;;;13.66;100.0
64025;BME280;50266;57.446;26.936;2023-06-24T02:43:51;99265.36;;;13.7;100.0
64025;BME280;50266;57.446;26.936;2023-06-24T02:44:51;99271.8;;;13.72;100.0
64025;BME280;50266;57.446;26.936;2023-06-24T02:45:51;99271.27;;;13.77;100.0
64025;BME280;50266;57.446;26.936;2023-06-24T02:46:51;99271.8;;;13.75;100.0
64025;BME280;50266;57.446;26.936;2023-06-24T02:47:51;99263.91;;;13.77;100.0
64025;BME280;50266;57.446;26.936;2023-06-24T02:48:51;99265.61;;;13.75;100.0
64025;BME280;50266;57.446;26.936;2023-06-24T02:49:51;99258.95;;;13.85;100.0
64025;BME280;50266;57.446;26.936;2023-06-24T02:50:51;99267.41;;;13.83;100.0
64025;BME280;50266;57.446;26.936;2023-06-24T02:51:51;99267.25;;;13.83;100.0
64025;BME280;50266;57.446;26.936;2023-06-24T02:52:51;99270.98;;;13.82;100.0
64025;BME280;50266;57.446;26.936;2023-06-24T02:53:51;99262.8;;;13.88;100.0
64025;BME280;50266;57.446;26.936;2023-06-24T02:54:51;99270.97;;;13.85;100.0
64025;BME280;50266;57.446;26.936;2023-06-24T02:55:51;99266.81;;;13.85;100.0
64025;BME280;50266;57.446;26.936;2023-06-24T02:56:51;99264.81;;;13.89;100.0
64025;BME280;50266;57.446;26.936;2023-06-24T02:57:51;99265.96;;;13.91;100.0
64025;BME280;50266;57.446;26.936;2023-06-24T02:58:51;99265.34;;;13.97;100.0
64025;BME280;50266;57.446;26.936;2023-06-24T02:59:51;99264.29;;;13.99;100.0
64025;BME280;50266;57.446;26.936;2023-06-24T03:00:51;99261.56;;;13.97;100.0
64025;BME280;50266;57.446;26.936;2023-06-24T03:01:51;99260.1;;;13.98;100.0
64025;BME280;50266;57.446;26.936;2023-06-24T03:02:51;99254.32;;;13.97;100.0
64025;BME280;50266;57.446;26.936;2023-06-24T03:03:52;99259.23;;;14.0;100.0
64025;BME280;50266;57.446;26.936;2023-06-24T03:04:51;99257.81;;;14.0;100.0
64025;BME280;50266;57.446;26.936;2023-06-24T03:05:52;99256.67;;;14.04;100.0
64025;BME280;50266;57.446;26.936;2023-06-24T03:06:51;99251.3;;;14.07;100.0
64025;BME280;50266;57.446;26.936;2023-06-24T03:07:51;99252.19;;;14.09;100.0
64025;BME280;50266;57.446;26.936;2023-06-24T03:08:51;99252.66;;;14.07;100.0
64025;BME280;50266;57.446;26.936;2023-06-24T03:09:51;99251.19;;;14.12;100.0
64025;BME280;50266;57.446;26.936;2023-06-24T03:10:54;99254.45;;;14.17;100.0
64025;BME280;50266;57.446;26.936;2023-06-24T03:11:51;99252.17;;;14.16;100.0
64025;BME280;50266;57.446;26.936;2023-06-24T03:12:51;99254.88;;;14.14;100.0
64025;BME280;50266;57.446;26.936;2023-06-24T03:13:51;99249.81;;;14.15;100.0
64025;BME280;50266;57.446;26.936;2023-06-24T03:14:51;99258.15;;;14.18;100.0
64025;BME280;50266;57.446;26.936;2023-06-24T03:15:51;99249.41;;;14.22;100.0
64025;BME280;50266;57.446;26.936;2023-06-24T03:16:51;99254.92;;;14.25;100.0
64025;BME280;50266;57.446;26.936;2023-06-24T03:17:51;99250.09;;;14.26;100.0
64025;BME280;50266;57.446;26.936;2023-06-24T03:18:51;99252.2;;;14.34;100.0
64025;BME280;50266;57.446;26.936;2023-06-24T03:19:51;99255.61;;;14.26;100.0
64025;BME280;50266;57.446;26.936;2023-06-24T03:20:53;99256.92;;;14.32;100.0
64025;BME280;50266;57.446;26.936;2023-06-24T03:21:51;99252.36;;;14.33;100.0
64025;BME280;50266;57.446;26.936;2023-06-24T03:22:51;99254.27;;;14.34;100.0
64025;BME280;50266;57.446;26.936;2023-06-24T03:23:51;99256.7;;;14.4;100.0
64025;BME280;50266;57.446;26.936;2023-06-24T03:24:51;99256.82;;;14.36;100.0
64025;BME280;50266;57.446;26.936;2023-06-24T03:25:51;99252.98;;;14.36;100.0
64025;BME280;50266;57.446;26.936;2023-06-24T03:26:52;99253.45;;;14.41;100.0
64025;BME280;50266;57.446;26.936;2023-06-24T03:27:52;99252.8;;;14.39;100.0
64025;BME280;50266;57.446;26.936;2023-06-24T03:28:52;99251.69;;;14.38;100.0
64025;BME280;50266;57.446;26.936;2023-06-24T03:29:52;99249.7;;;14.39;100.0
64025;BME280;50266;57.446;26.936;2023-06-24T03:30:52;99252.31;;;14.49;100.0
64025;BME280;50266;57.446;26.936;2023-06-24T03:31:52;99249.6;;;14.47;100.0
64025;BME280;50266;57.446;26.936;2023-06-24T03:32:52;99254.17;;;14.5;100.0
64025;BME280;50266;57.446;26.936;2023-06-24T03:33:52;99252.22;;;14.49;100.0
64025;BME280;50266;57.446;26.936;2023-06-24T03:34:52;99249.26;;;14.54;100.0
64025;BME280;50266;57.446;26.936;2023-06-24T03:35:52;99250.64;;;14.52;100.0
64025;BME280;50266;57.446;26.936;2023-06-24T03:36:52;99252.12;;;14.52;100.0
64025;BME280;50266;57.446;26.936;2023-06-24T03:37:52;99251.03;;;14.56;100.0
64025;BME280;50266;57.446;26.936;2023-06-24T03:38:52;99249.59;;;14.59;100.0
64025;BME280;50266;57.446;26.936;2023-06-24T03:39:52;99251.45;;;14.56;100.0
64025;BME280;50266;57.446;26.936;2023-06-24T03:40:52;99253.52;;;14.66;100.0
64025;BME280;50266;57.446;26.936;2023-06-24T03:41:52;99254.22;;;14.68;100.0
64025;BME280;50266;57.446;26.936;2023-06-24T03:42:52;99252.05;;;14.6;100.0
64025;BME280;50266;57.446;26.936;2023-06-24T03:43:52;99253.41;;;14.68;100.0
64025;BME280;50266;57.446;26.936;2023-06-24T03:44:52;99253.1;;;14.7;100.0
64025;BME280;50266;57.446;26.936;2023-06-24T03:45:52;99255.14;;;14.74;100.0
64025;BME280;50266;57.446;26.936;2023-06-24T03:46:52;99256.91;;;14.8;100.0
64025;BME280;50266;57.446;26.936;2023-06-24T03:47:52;99257.39;;;14.79;100.0
64025;BME280;50266;57.446;26.936;2023-06-24T03:48:52;99262.62;;;14.82;100.0
64025;BME280;50266;57.446;26.936;2023-06-24T03:49:52;99260.03;;;14.85;100.0
64025;BME280;50266;57.446;26.936;2023-06-24T03:50:52;99259.58;;;14.88;100.0
64025;BME280;50266;57.446;26.936;2023-06-24T03:51:52;99257.91;;;14.91;100.0
64025;BME280;50266;57.446;26.936;2023-06-24T03:52:52;99257.86;;;14.86;100.0
64025;BME280;50266;57.446;26.936;2023-06-24T03:53:52;99259.38;;;14.89;100.0
64025;BME280;50266;57.446;26.936;2023-06-24T03:54:52;99262.96;;;14.89;100.0
64025;BME280;50266;57.446;26.936;2023-06-24T03:55:52;99259.81;;;14.9;100.0
64025;BME280;50266;57.446;26.936;2023-06-24T03:56:53;99264.93;;;15.04;100.0
64025;BME280;50266;57.446;26.936;2023-06-24T03:57:53;99262.95;;;15.05;100.0
64025;BME280;50266;57.446;26.936;2023-06-24T03:58:53;99259.61;;;15.05;100.0
64025;BME280;50266;57.446;26.936;2023-06-24T03:59:53;99259.11;;;15.09;100.0
64025;BME280;50266;57.446;26.936;2023-06-24T04:00:53;99258.99;;;15.12;100.0
64025;BME280;50266;57.446;26.936;2023-06-24T04:01:53;99260.33;;;15.12;100.0
64025;BME280;50266;57.446;26.936;2023-06-24T04:02:53;99261.2;;;15.06;100.0
64025;BME280;50266;57.446;26.936;2023-06-24T04:03:53;99265.66;;;15.11;100.0
64025;BME280;50266;57.446;26.936;2023-06-24T04:04:53;99267.43;;;15.21;100.0
64025;BME280;50266;57.446;26.936;2023-06-24T04:05:53;99265.35;;;15.25;100.0
64025;BME280;50266;57.446;26.936;2023-06-24T04:06:53;99267.31;;;15.19;100.0
64025;BME280;50266;57.446;26.936;2023-06-24T04:07:53;99268.42;;;15.28;100.0
64025;BME280;50266;57.446;26.936;2023-06-24T04:08:53;99266.75;;;15.36;100.0
64025;BME280;50266;57.446;26.936;2023-06-24T04:09:55;99269.38;;;15.39;100.0
64025;BME280;50266;57.446;26.936;2023-06-24T04:10:53;99272.84;;;15.31;100.0
64025;BME280;50266;57.446;26.936;2023-06-24T04:11:53;99269.41;;;15.45;100.0
64025;BME280;50266;57.446;26.936;2023-06-24T04:12:53;99271.67;;;15.5;100.0
64025;BME280;50266;57.446;26.936;2023-06-24T04:13:53;99270.12;;;15.51;100.0
64025;BME280;50266;57.446;26.936;2023-06-24T04:14:53;99272.78;;;15.55;100.0
64025;BME280;50266;57.446;26.936;2023-06-24T04:15:53;99268.84;;;15.57;100.0
64025;BME280;50266;57.446;26.936;2023-06-24T04:16:53;99275.07;;;15.6;100.0
64025;BME280;50266;57.446;26.936;2023-06-24T04:17:53;99276.64;;;15.57;100.0
64025;BME280;50266;57.446;26.936;2023-06-24T04:18:53;99275.4;;;15.6;100.0
64025;BME280;50266;57.446;26.936;2023-06-24T04:19:53;99278.78;;;15.7;100.0
64025;BME280;50266;57.446;26.936;2023-06-24T04:20:53;99277.93;;;15.69;100.0
64025;BME280;50266;57.446;26.936;2023-06-24T04:21:53;99279.02;;;15.7;100.0
64025;BME280;50266;57.446;26.936;2023-06-24T04:22:53;99284.57;;;15.79;100.0
64025;BME280;50266;57.446;26.936;2023-06-24T04:23:53;99283.62;;;15.78;100.0
64025;BME280;50266;57.446;26.936;2023-06-24T04:24:53;99281.97;;;15.81;100.0
64025;BME280;50266;57.446;26.936;2023-06-24T04:25:53;99286.28;;;15.83;100.0
64025;BME280;50266;57.446;26.936;2023-06-24T04:26:53;99288.23;;;15.74;100.0
64025;BME280;50266;57.446;26.936;2023-06-24T04:27:53;99291.91;;;15.78;100.0
64025;BME280;50266;57.446;26.936;2023-06-24T04:28:53;99290.47;;;15.87;100.0
64025;BME280;50266;57.446;26.936;2023-06-24T04:29:53;99291.62;;;15.82;100.0
64025;BME280;50266;57.446;26.936;2023-06-24T04:30:53;99294.52;;;15.98;100.0
64025;BME280;50266;57.446;26.936;2023-06-24T04:31:53;99294.22;;;16.01;100.0
64025;BME280;50266;57.446;26.936;2023-06-24T04:32:53;99293.0;;;15.92;100.0
64025;BME280;50266;57.446;26.936;2023-06-24T04:33:53;99297.38;;;15.98;100.0
64025;BME280;50266;57.446;26.936;2023-06-24T04:34:53;99305.11;;;15.95;100.0
64025;BME280;50266;57.446;26.936;2023-06-24T04:35:53;99303.55;;;15.97;100.0
64025;BME280;50266;57.446;26.936;2023-06-24T04:36:53;99301.8;;;15.97;100.0
64025;BME280;50266;57.446;26.936;2023-06-24T04:37:53;99301.94;;;15.92;100.0
64025;BME280;50266;57.446;26.936;2023-06-24T04:38:53;99303.7;;;15.96;100.0
64025;BME280;50266;57.446;26.936;2023-06-24T04:39:53;99308.27;;;16.05;100.0
64025;BME280;50266;57.446;26.936;2023-06-24T04:40:53;99309.37;;;16.1;100.0
64025;BME280;50266;57.446;26.936;2023-06-24T04:41:53;99311.95;;;16.14;100.0
64025;BME280;50266;57.446;26.936;2023-06-24T04:42:53;99315.53;;;16.12;100.0
64025;BME280;50266;57.446;26.936;2023-06-24T04:43:53;99320.26;;;16.1;100.0
64025;BME280;50266;57.446;26.936;2023-06-24T04:44:53;99319.34;;;16.14;100.0
64025;BME280;50266;57.446;26.936;2023-06-24T04:45:54;99318.93;;;16.21;100.0
64025;BME280;50266;57.446;26.936;2023-06-24T04:46:53;99322.23;;;16.28;100.0
64025;BME280;50266;57.446;26.936;2023-06-24T04:47:53;99329.44;;;16.23;100.0
64025;BME280;50266;57.446;26.936;2023-06-24T04:48:53;99328.48;;;16.31;100.0
64025;BME280;50266;57.446;26.936;2023-06-24T04:49:53;99326.27;;;16.29;100.0
64025;BME280;50266;57.446;26.936;2023-06-24T04:50:53;99329.16;;;16.41;100.0
64025;BME280;50266;57.446;26.936;2023-06-24T04:51:53;99326.66;;;16.36;100.0
64025;BME280;50266;57.446;26.936;2023-06-24T04:52:53;99331.45;;;16.32;100.0
64025;BME280;50266;57.446;26.936;2023-06-24T04:53:53;99330.59;;;16.43;100.0
64025;BME280;50266;57.446;26.936;2023-06-24T04:54:53;99337.21;;;16.41;100.0
64025;BME280;50266;57.446;26.936;2023-06-24T04:55:53;99331.49;;;16.46;100.0
64025;BME280;50266;57.446;26.936;2023-06-24T04:56:53;99332.86;;;16.53;100.0
64025;BME280;50266;57.446;26.936;2023-06-24T04:57:54;99339.06;;;16.53;100.0
64025;BME280;50266;57.446;26.936;2023-06-24T04:58:54;99342.98;;;16.62;100.0
64025;BME280;50266;57.446;26.936;2023-06-24T04:59:54;99344.3;;;16.6;100.0
64025;BME280;50266;57.446;26.936;2023-06-24T05:00:54;99341.85;;;16.59;100.0
64025;BME280;50266;57.446;26.936;2023-06-24T05:01:54;99345.7;;;16.69;100.0
64025;BME280;50266;57.446;26.936;2023-06-24T05:02:54;99348.37;;;16.78;100.0
64025;BME280;50266;57.446;26.936;2023-06-24T05:03:54;99347.27;;;16.82;100.0
64025;BME280;50266;57.446;26.936;2023-06-24T05:04:54;99348.83;;;16.88;100.0
64025;BME280;50266;57.446;26.936;2023-06-24T05:05:54;99350.84;;;16.98;100.0
64025;BME280;50266;57.446;26.936;2023-06-24T05:06:54;99352.8;;;17.08;100.0
64025;BME280;50266;57.446;26.936;2023-06-24T05:07:54;99351.61;;;17.07;100.0
64025;BME280;50266;57.446;26.936;2023-06-24T05:08:54;99348.62;;;17.21;100.0
64025;BME280;50266;57.446;26.936;2023-06-24T05:09:54;99351.94;;;17.12;100.0
64025;BME280;50266;57.446;26.936;2023-06-24T05:10:54;99358.02;;;17.14;100.0
64025;BME280;50266;57.446;26.936;2023-06-24T05:11:54;99361.23;;;17.05;100.0
64025;BME280;50266;57.446;26.936;2023-06-24T05:12:54;99358.88;;;17.02;100.0
64025;BME280;50266;57.446;26.936;2023-06-24T05:13:54;99359.25;;;17.24;100.0
64025;BME280;50266;57.446;26.936;2023-06-24T05:14:54;99362.0;;;17.25;100.0
64025;BME280;50266;57.446;26.936;2023-06-24T05:15:54;99357.06;;;17.17;100.0
64025;BME280;50266;57.446;26.936;2023-06-24T05:16:54;99359.18;;;17.13;100.0
64025;BME280;50266;57.446;26.936;2023-06-24T05:17:54;99355.35;;;17.1;100.0
64025;BME280;50266;57.446;26.936;2023-06-24T05:18:54;99358.33;;;17.13;100.0
64025;BME280;50266;57.446;26.936;2023-06-24T05:19:54;99355.92;;;17.15;100.0
64025;BME280;50266;57.446;26.936;2023-06-24T05:20:54;99362.53;;;17.19;100.0
64025;BME280;50266;57.446;26.936;2023-06-24T05:21:54;99357.62;;;17.1;100.0
64025;BME280;50266;57.446;26.936;2023-06-24T05:22:54;99364.67;;;17.16;100.0
64025;BME280;50266;57.446;26.936;2023-06-24T05:23:54;99363.52;;;17.24;100.0
64025;BME280;50266;57.446;26.936;2023-06-24T05:24:54;99366.25;;;17.2;100.0
64025;BME280;50266;57.446;26.936;2023-06-24T05:25:54;99369.64;;;17.12;100.0